sensor_id;sensor_type;location;lat;lon;timestamp;P1;durP1;ratioP1;P2;durP2;ratioP2
35056;SDS011;21241;51.828;19.574;2023-03-01T00:01:17;38.50;;;34.90;;
35056;SDS011;21241;51.828;19.574;2023-03-01T00:03:47;35.90;;;32.50;;
35056;SDS011;21241;51.828;19.574;2023-03-01T00:06:15;34.20;;;30.90;;
35056;SDS011;21241;51.828;19.574;2023-03-01T00:08:42;36.40;;;33.00;;
35056;SDS011;21241;51.828;19.574;2023-03-01T00:11:12;37.00;;;33.50;;
35056;SDS011;21241;51.828;19.574;2023-03-01T00:13:41;34.60;;;31.40;;
35056;SDS011;21241;51.828;19.574;2023-03-01T00:16:10;33.60;;;30.50;;
35056;SDS011;21241;51.828;19.574;2023-03-01T00:18:43;33.90;;;30.70;;
35056;SDS011;21241;51.828;19.574;2023-03-01T00:21:10;32.50;;;29.40;;
35056;SDS011;21241;51.828;19.574;2023-03-01T00:23:39;32.80;;;29.70;;
35056;SDS011;21241;51.828;19.574;2023-03-01T00:26:08;33.10;;;29.90;;
35056;SDS011;21241;51.828;19.574;2023-03-01T00:28:37;33.20;;;30.10;;
35056;SDS011;21241;51.828;19.574;2023-03-01T00:31:13;31.30;;;28.40;;
35056;SDS011;21241;51.828;19.574;2023-03-01T00:33:41;32.00;;;29.10;;
35056;SDS011;21241;51.828;19.574;2023-03-01T00:36:10;33.30;;;30.30;;
35056;SDS011;21241;51.828;19.574;2023-03-01T00:38:40;32.20;;;29.30;;
35056;SDS011;21241;51.828;19.574;2023-03-01T00:41:13;33.20;;;29.90;;
35056;SDS011;21241;51.828;19.574;2023-03-01T00:43:42;32.50;;;29.40;;
35056;SDS011;21241;51.828;19.574;2023-03-01T00:46:11;32.00;;;29.00;;
35056;SDS011;21241;51.828;19.574;2023-03-01T00:48:41;33.50;;;30.30;;
35056;SDS011;21241;51.828;19.574;2023-03-01T00:51:10;30.00;;;27.10;;
35056;SDS011;21241;51.828;19.574;2023-03-01T00:53:38;30.30;;;27.50;;
35056;SDS011;21241;51.828;19.574;2023-03-01T00:56:07;32.00;;;28.90;;
35056;SDS011;21241;51.828;19.574;2023-03-01T00:58:36;29.10;;;26.20;;
35056;SDS011;21241;51.828;19.574;2023-03-01T01:01:15;30.80;;;27.90;;
35056;SDS011;21241;51.828;19.574;2023-03-01T01:03:48;29.80;;;26.80;;
35056;SDS011;21241;51.828;19.574;2023-03-01T01:06:28;31.80;;;28.70;;
35056;SDS011;21241;51.828;19.574;2023-03-01T01:09:01;33.10;;;29.90;;
35056;SDS011;21241;51.828;19.574;2023-03-01T01:11:29;34.50;;;31.10;;
35056;SDS011;21241;51.828;19.574;2023-03-01T01:13:58;33.30;;;30.30;;
35056;SDS011;21241;51.828;19.574;2023-03-01T01:16:27;36.70;;;33.20;;
35056;SDS011;21241;51.828;19.574;2023-03-01T01:18:56;35.00;;;31.60;;
35056;SDS011;21241;51.828;19.574;2023-03-01T01:21:24;35.80;;;32.30;;
35056;SDS011;21241;51.828;19.574;2023-03-01T01:23:53;37.20;;;33.50;;
35056;SDS011;21241;51.828;19.574;2023-03-01T01:26:25;36.10;;;32.60;;
35056;SDS011;21241;51.828;19.574;2023-03-01T01:28:55;36.50;;;33.00;;
35056;SDS011;21241;51.828;19.574;2023-03-01T01:31:24;36.20;;;32.70;;
35056;SDS011;21241;51.828;19.574;2023-03-01T01:33:55;35.00;;;31.70;;
35056;SDS011;21241;51.828;19.574;2023-03-01T01:36:24;34.40;;;31.00;;
35056;SDS011;21241;51.828;19.574;2023-03-01T01:38:51;35.10;;;31.80;;
35056;SDS011;21241;51.828;19.574;2023-03-01T01:41:21;36.30;;;32.90;;
35056;SDS011;21241;51.828;19.574;2023-03-01T01:44:08;38.60;;;34.80;;
35056;SDS011;21241;51.828;19.574;2023-03-01T01:46:49;37.50;;;33.80;;
35056;SDS011;21241;51.828;19.574;2023-03-01T01:49:22;36.70;;;33.00;;
35056;SDS011;21241;51.828;19.574;2023-03-01T01:51:55;35.60;;;32.20;;
35056;SDS011;21241;51.828;19.574;2023-03-01T01:54:31;37.40;;;33.80;;
35056;SDS011;21241;51.828;19.574;2023-03-01T01:57:07;38.10;;;34.40;;
35056;SDS011;21241;51.828;19.574;2023-03-01T01:59:38;37.50;;;33.90;;
35056;SDS011;21241;51.828;19.574;2023-03-01T02:02:08;38.60;;;34.90;;
35056;SDS011;21241;51.828;19.574;2023-03-01T02:04:36;36.10;;;32.80;;
35056;SDS011;21241;51.828;19.574;2023-03-01T02:07:09;37.30;;;33.60;;
35056;SDS011;21241;51.828;19.574;2023-03-01T02:09:48;39.20;;;35.40;;
35056;SDS011;21241;51.828;19.574;2023-03-01T02:12:19;38.80;;;35.00;;
35056;SDS011;21241;51.828;19.574;2023-03-01T02:14:48;35.90;;;32.60;;
35056;SDS011;21241;51.828;19.574;2023-03-01T02:17:16;34.50;;;31.30;;
35056;SDS011;21241;51.828;19.574;2023-03-01T02:19:52;32.60;;;29.60;;
35056;SDS011;21241;51.828;19.574;2023-03-01T02:22:43;31.10;;;28.20;;
35056;SDS011;21241;51.828;19.574;2023-03-01T02:30:47;30.10;;;27.30;;
35056;SDS011;21241;51.828;19.574;2023-03-01T02:33:37;28.40;;;25.60;;
35056;SDS011;21241;51.828;19.574;2023-03-01T02:38:58;27.80;;;25.20;;
35056;SDS011;21241;51.828;19.574;2023-03-01T02:41:27;28.90;;;26.30;;
35056;SDS011;21241;51.828;19.574;2023-03-01T02:43:56;29.50;;;26.70;;
35056;SDS011;21241;51.828;19.574;2023-03-01T02:46:24;28.20;;;25.70;;
35056;SDS011;21241;51.828;19.574;2023-03-01T02:48:56;28.10;;;25.60;;
35056;SDS011;21241;51.828;19.574;2023-03-01T02:51:37;27.40;;;24.80;;
35056;SDS011;21241;51.828;19.574;2023-03-01T02:56:56;28.40;;;25.80;;
35056;SDS011;21241;51.828;19.574;2023-03-01T02:59:27;29.90;;;27.20;;
35056;SDS011;21241;51.828;19.574;2023-03-01T03:01:57;30.70;;;27.90;;
35056;SDS011;21241;51.828;19.574;2023-03-01T03:04:25;30.40;;;27.70;;
35056;SDS011;21241;51.828;19.574;2023-03-01T03:06:52;30.80;;;27.90;;
35056;SDS011;21241;51.828;19.574;2023-03-01T03:09:20;30.20;;;27.60;;
35056;SDS011;21241;51.828;19.574;2023-03-01T03:11:48;30.40;;;27.70;;
35056;SDS011;21241;51.828;19.574;2023-03-01T03:14:16;30.80;;;27.90;;
35056;SDS011;21241;51.828;19.574;2023-03-01T03:16:47;30.40;;;27.60;;
35056;SDS011;21241;51.828;19.574;2023-03-01T03:19:16;29.30;;;26.60;;
35056;SDS011;21241;51.828;19.574;2023-03-01T03:21:46;29.50;;;26.90;;
35056;SDS011;21241;51.828;19.574;2023-03-01T03:24:14;29.40;;;26.80;;
35056;SDS011;21241;51.828;19.574;2023-03-01T03:26:41;28.20;;;25.70;;
35056;SDS011;21241;51.828;19.574;2023-03-01T03:29:09;29.30;;;26.60;;
35056;SDS011;21241;51.828;19.574;2023-03-01T03:31:36;28.40;;;25.70;;
35056;SDS011;21241;51.828;19.574;2023-03-01T03:34:04;28.50;;;25.90;;
35056;SDS011;21241;51.828;19.574;2023-03-01T03:36:32;28.30;;;25.70;;
35056;SDS011;21241;51.828;19.574;2023-03-01T03:38:59;29.20;;;26.60;;
35056;SDS011;21241;51.828;19.574;2023-03-01T03:41:27;29.40;;;26.90;;
35056;SDS011;21241;51.828;19.574;2023-03-01T03:43:55;29.50;;;26.80;;
35056;SDS011;21241;51.828;19.574;2023-03-01T03:46:22;29.90;;;27.00;;
35056;SDS011;21241;51.828;19.574;2023-03-01T03:48:50;29.30;;;26.60;;
35056;SDS011;21241;51.828;19.574;2023-03-01T03:51:18;29.30;;;26.70;;
35056;SDS011;21241;51.828;19.574;2023-03-01T03:53:46;30.50;;;27.70;;
35056;SDS011;21241;51.828;19.574;2023-03-01T03:56:14;29.80;;;27.00;;
35056;SDS011;21241;51.828;19.574;2023-03-01T03:58:42;30.70;;;27.90;;
35056;SDS011;21241;51.828;19.574;2023-03-01T04:01:09;29.10;;;26.50;;
35056;SDS011;21241;51.828;19.574;2023-03-01T04:03:37;29.40;;;26.70;;
35056;SDS011;21241;51.828;19.574;2023-03-01T04:06:05;30.60;;;27.80;;
35056;SDS011;21241;51.828;19.574;2023-03-01T04:08:33;29.60;;;27.00;;
35056;SDS011;21241;51.828;19.574;2023-03-01T04:11:01;30.20;;;27.40;;
35056;SDS011;21241;51.828;19.574;2023-03-01T04:13:57;30.50;;;27.70;;
35056;SDS011;21241;51.828;19.574;2023-03-01T04:16:25;29.80;;;27.10;;
35056;SDS011;21241;51.828;19.574;2023-03-01T04:18:53;30.90;;;28.00;;
35056;SDS011;21241;51.828;19.574;2023-03-01T04:21:21;30.10;;;27.40;;
35056;SDS011;21241;51.828;19.574;2023-03-01T04:23:49;30.50;;;27.70;;
35056;SDS011;21241;51.828;19.574;2023-03-01T04:26:20;30.60;;;27.70;;
35056;SDS011;21241;51.828;19.574;2023-03-01T04:28:47;31.40;;;28.60;;
35056;SDS011;21241;51.828;19.574;2023-03-01T04:31:17;31.40;;;28.40;;
35056;SDS011;21241;51.828;19.574;2023-03-01T04:33:49;31.20;;;28.50;;
35056;SDS011;21241;51.828;19.574;2023-03-01T04:36:20;31.00;;;28.10;;
35056;SDS011;21241;51.828;19.574;2023-03-01T04:38:50;31.40;;;28.50;;
35056;SDS011;21241;51.828;19.574;2023-03-01T04:41:18;32.60;;;29.60;;
35056;SDS011;21241;51.828;19.574;2023-03-01T04:43:47;30.00;;;27.30;;
35056;SDS011;21241;51.828;19.574;2023-03-01T04:46:17;30.10;;;27.30;;
35056;SDS011;21241;51.828;19.574;2023-03-01T04:48:47;27.80;;;25.10;;
35056;SDS011;21241;51.828;19.574;2023-03-01T04:51:15;29.00;;;26.40;;
35056;SDS011;21241;51.828;19.574;2023-03-01T04:53:43;28.30;;;25.70;;
35056;SDS011;21241;51.828;19.574;2023-03-01T04:56:12;27.40;;;24.70;;
35056;SDS011;21241;51.828;19.574;2023-03-01T04:58:41;27.30;;;24.80;;
35056;SDS011;21241;51.828;19.574;2023-03-01T05:01:13;28.30;;;25.70;;
35056;SDS011;21241;51.828;19.574;2023-03-01T05:03:43;29.00;;;26.30;;
35056;SDS011;21241;51.828;19.574;2023-03-01T05:06:12;28.20;;;25.70;;
35056;SDS011;21241;51.828;19.574;2023-03-01T05:08:41;32.50;;;29.40;;
35056;SDS011;21241;51.828;19.574;2023-03-01T05:11:09;30.40;;;27.70;;
35056;SDS011;21241;51.828;19.574;2023-03-01T05:13:38;29.40;;;26.70;;
35056;SDS011;21241;51.828;19.574;2023-03-01T05:16:07;30.50;;;27.60;;
35056;SDS011;21241;51.828;19.574;2023-03-01T05:18:39;30.50;;;27.60;;
35056;SDS011;21241;51.828;19.574;2023-03-01T05:21:09;30.30;;;27.40;;
35056;SDS011;21241;51.828;19.574;2023-03-01T05:23:43;30.70;;;27.80;;
35056;SDS011;21241;51.828;19.574;2023-03-01T05:26:11;31.60;;;28.70;;
35056;SDS011;21241;51.828;19.574;2023-03-01T05:28:54;33.20;;;30.20;;
35056;SDS011;21241;51.828;19.574;2023-03-01T05:31:27;33.30;;;30.30;;
35056;SDS011;21241;51.828;19.574;2023-03-01T05:33:55;32.90;;;30.00;;
35056;SDS011;21241;51.828;19.574;2023-03-01T05:36:23;34.90;;;31.70;;
35056;SDS011;21241;51.828;19.574;2023-03-01T05:38:50;36.90;;;33.50;;
35056;SDS011;21241;51.828;19.574;2023-03-01T05:41:18;38.50;;;35.30;;
35056;SDS011;21241;51.828;19.574;2023-03-01T05:43:46;38.90;;;35.40;;
35056;SDS011;21241;51.828;19.574;2023-03-01T05:46:13;37.50;;;34.20;;
35056;SDS011;21241;51.828;19.574;2023-03-01T05:48:42;36.90;;;33.60;;
35056;SDS011;21241;51.828;19.574;2023-03-01T05:51:11;38.70;;;34.80;;
35056;SDS011;21241;51.828;19.574;2023-03-01T05:53:39;38.90;;;35.30;;
35056;SDS011;21241;51.828;19.574;2023-03-01T05:56:07;41.50;;;37.70;;
35056;SDS011;21241;51.828;19.574;2023-03-01T05:58:35;40.80;;;37.00;;
35056;SDS011;21241;51.828;19.574;2023-03-01T06:01:02;40.90;;;37.20;;
35056;SDS011;21241;51.828;19.574;2023-03-01T06:03:30;40.20;;;36.60;;
35056;SDS011;21241;51.828;19.574;2023-03-01T06:05:58;41.80;;;37.90;;
35056;SDS011;21241;51.828;19.574;2023-03-01T06:08:26;40.30;;;36.70;;
35056;SDS011;21241;51.828;19.574;2023-03-01T06:10:54;41.40;;;37.50;;
35056;SDS011;21241;51.828;19.574;2023-03-01T06:13:23;42.00;;;38.20;;
35056;SDS011;21241;51.828;19.574;2023-03-01T06:15:51;44.30;;;40.10;;
35056;SDS011;21241;51.828;19.574;2023-03-01T06:18:19;45.00;;;40.80;;
35056;SDS011;21241;51.828;19.574;2023-03-01T06:20:52;44.50;;;40.30;;
35056;SDS011;21241;51.828;19.574;2023-03-01T06:23:23;44.00;;;39.80;;
35056;SDS011;21241;51.828;19.574;2023-03-01T06:25:51;42.40;;;38.40;;
35056;SDS011;21241;51.828;19.574;2023-03-01T06:28:19;39.30;;;35.60;;
35056;SDS011;21241;51.828;19.574;2023-03-01T06:30:47;42.50;;;38.40;;
35056;SDS011;21241;51.828;19.574;2023-03-01T06:33:17;42.80;;;38.80;;
35056;SDS011;21241;51.828;19.574;2023-03-01T06:35:47;43.40;;;39.30;;
35056;SDS011;21241;51.828;19.574;2023-03-01T06:38:15;42.00;;;38.10;;
35056;SDS011;21241;51.828;19.574;2023-03-01T06:40:44;43.90;;;39.80;;
35056;SDS011;21241;51.828;19.574;2023-03-01T06:43:12;44.20;;;40.10;;
35056;SDS011;21241;51.828;19.574;2023-03-01T06:45:40;41.70;;;37.80;;
35056;SDS011;21241;51.828;19.574;2023-03-01T06:48:09;42.40;;;38.30;;
35056;SDS011;21241;51.828;19.574;2023-03-01T06:50:36;42.30;;;38.30;;
35056;SDS011;21241;51.828;19.574;2023-03-01T06:53:05;39.70;;;36.00;;
35056;SDS011;21241;51.828;19.574;2023-03-01T06:55:33;39.80;;;36.10;;
35056;SDS011;21241;51.828;19.574;2023-03-01T06:58:02;39.90;;;36.10;;
35056;SDS011;21241;51.828;19.574;2023-03-01T07:00:30;38.20;;;34.70;;
35056;SDS011;21241;51.828;19.574;2023-03-01T07:02:59;39.40;;;35.80;;
35056;SDS011;21241;51.828;19.574;2023-03-01T07:05:28;34.70;;;31.40;;
35056;SDS011;21241;51.828;19.574;2023-03-01T07:07:57;34.90;;;31.50;;
35056;SDS011;21241;51.828;19.574;2023-03-01T07:10:24;34.10;;;31.00;;
35056;SDS011;21241;51.828;19.574;2023-03-01T07:12:58;33.10;;;30.20;;
35056;SDS011;21241;51.828;19.574;2023-03-01T07:15:26;34.10;;;31.00;;
35056;SDS011;21241;51.828;19.574;2023-03-01T07:17:56;33.00;;;30.00;;
35056;SDS011;21241;51.828;19.574;2023-03-01T07:20:23;31.80;;;28.80;;
35056;SDS011;21241;51.828;19.574;2023-03-01T07:22:53;30.90;;;28.10;;
35056;SDS011;21241;51.828;19.574;2023-03-01T07:25:22;32.40;;;29.20;;
35056;SDS011;21241;51.828;19.574;2023-03-01T07:27:50;32.20;;;29.20;;
35056;SDS011;21241;51.828;19.574;2023-03-01T07:30:20;33.70;;;30.70;;
35056;SDS011;21241;51.828;19.574;2023-03-01T07:32:48;35.80;;;32.60;;
35056;SDS011;21241;51.828;19.574;2023-03-01T07:35:16;33.40;;;30.20;;
35056;SDS011;21241;51.828;19.574;2023-03-01T07:37:44;33.40;;;30.20;;
35056;SDS011;21241;51.828;19.574;2023-03-01T07:40:11;34.00;;;30.80;;
35056;SDS011;21241;51.828;19.574;2023-03-01T07:42:39;34.80;;;31.60;;
35056;SDS011;21241;51.828;19.574;2023-03-01T07:45:07;33.90;;;30.90;;
35056;SDS011;21241;51.828;19.574;2023-03-01T07:47:36;35.10;;;31.60;;
35056;SDS011;21241;51.828;19.574;2023-03-01T07:50:04;34.80;;;31.60;;
35056;SDS011;21241;51.828;19.574;2023-03-01T07:52:32;33.10;;;30.10;;
35056;SDS011;21241;51.828;19.574;2023-03-01T07:55:00;33.20;;;30.10;;
35056;SDS011;21241;51.828;19.574;2023-03-01T07:57:28;34.30;;;31.00;;
35056;SDS011;21241;51.828;19.574;2023-03-01T07:59:55;33.00;;;29.90;;
35056;SDS011;21241;51.828;19.574;2023-03-01T08:02:23;31.20;;;28.50;;
35056;SDS011;21241;51.828;19.574;2023-03-01T08:04:51;31.70;;;28.80;;
35056;SDS011;21241;51.828;19.574;2023-03-01T08:07:18;32.70;;;29.50;;
35056;SDS011;21241;51.828;19.574;2023-03-01T08:09:46;32.40;;;29.40;;
35056;SDS011;21241;51.828;19.574;2023-03-01T08:12:14;33.70;;;30.70;;
35056;SDS011;21241;51.828;19.574;2023-03-01T08:14:43;31.80;;;29.00;;
35056;SDS011;21241;51.828;19.574;2023-03-01T08:17:13;31.80;;;28.70;;
35056;SDS011;21241;51.828;19.574;2023-03-01T08:19:42;33.50;;;30.50;;
35056;SDS011;21241;51.828;19.574;2023-03-01T08:22:10;32.40;;;29.40;;
35056;SDS011;21241;51.828;19.574;2023-03-01T08:24:38;30.70;;;27.70;;
35056;SDS011;21241;51.828;19.574;2023-03-01T08:27:05;32.80;;;29.70;;
35056;SDS011;21241;51.828;19.574;2023-03-01T08:29:33;32.80;;;29.80;;
35056;SDS011;21241;51.828;19.574;2023-03-01T08:32:01;32.40;;;29.60;;
35056;SDS011;21241;51.828;19.574;2023-03-01T08:34:28;31.40;;;28.50;;
35056;SDS011;21241;51.828;19.574;2023-03-01T08:36:58;31.60;;;28.70;;
35056;SDS011;21241;51.828;19.574;2023-03-01T08:39:26;32.40;;;29.20;;
35056;SDS011;21241;51.828;19.574;2023-03-01T08:41:54;31.90;;;29.10;;
35056;SDS011;21241;51.828;19.574;2023-03-01T08:44:22;30.90;;;28.00;;
35056;SDS011;21241;51.828;19.574;2023-03-01T08:46:50;32.00;;;28.90;;
35056;SDS011;21241;51.828;19.574;2023-03-01T08:49:19;29.10;;;26.30;;
35056;SDS011;21241;51.828;19.574;2023-03-01T08:51:47;29.40;;;26.60;;
35056;SDS011;21241;51.828;19.574;2023-03-01T08:54:16;31.70;;;28.70;;
35056;SDS011;21241;51.828;19.574;2023-03-01T08:56:46;28.90;;;26.10;;
35056;SDS011;21241;51.828;19.574;2023-03-01T08:59:15;27.10;;;24.70;;
35056;SDS011;21241;51.828;19.574;2023-03-01T09:01:44;24.70;;;22.40;;
35056;SDS011;21241;51.828;19.574;2023-03-01T09:04:12;25.00;;;22.80;;
35056;SDS011;21241;51.828;19.574;2023-03-01T09:06:41;24.40;;;22.20;;
35056;SDS011;21241;51.828;19.574;2023-03-01T09:09:13;24.80;;;22.30;;
35056;SDS011;21241;51.828;19.574;2023-03-01T09:11:44;24.60;;;22.20;;
35056;SDS011;21241;51.828;19.574;2023-03-01T09:14:13;23.30;;;21.20;;
35056;SDS011;21241;51.828;19.574;2023-03-01T09:16:41;22.50;;;20.50;;
35056;SDS011;21241;51.828;19.574;2023-03-01T09:19:10;23.70;;;21.30;;
35056;SDS011;21241;51.828;19.574;2023-03-01T09:21:38;22.70;;;20.50;;
35056;SDS011;21241;51.828;19.574;2023-03-01T09:24:11;24.50;;;22.00;;
35056;SDS011;21241;51.828;19.574;2023-03-01T09:26:41;23.70;;;21.50;;
35056;SDS011;21241;51.828;19.574;2023-03-01T09:29:09;23.50;;;21.40;;
35056;SDS011;21241;51.828;19.574;2023-03-01T09:31:37;23.90;;;21.80;;
35056;SDS011;21241;51.828;19.574;2023-03-01T09:34:05;23.10;;;20.80;;
35056;SDS011;21241;51.828;19.574;2023-03-01T09:36:33;23.90;;;21.60;;
35056;SDS011;21241;51.828;19.574;2023-03-01T09:39:01;23.30;;;21.20;;
35056;SDS011;21241;51.828;19.574;2023-03-01T09:44:36;22.90;;;20.90;;
35056;SDS011;21241;51.828;19.574;2023-03-01T09:47:27;23.90;;;21.80;;
35056;SDS011;21241;51.828;19.574;2023-03-01T09:50:04;25.20;;;22.90;;
35056;SDS011;21241;51.828;19.574;2023-03-01T09:52:43;22.40;;;20.30;;
35056;SDS011;21241;51.828;19.574;2023-03-01T09:55:15;14.40;;;13.10;;
35056;SDS011;21241;51.828;19.574;2023-03-01T09:57:55;13.90;;;12.60;;
35056;SDS011;21241;51.828;19.574;2023-03-01T10:00:33;15.00;;;13.60;;
35056;SDS011;21241;51.828;19.574;2023-03-01T10:03:23;16.50;;;14.90;;
35056;SDS011;21241;51.828;19.574;2023-03-01T10:05:56;14.80;;;13.40;;
35056;SDS011;21241;51.828;19.574;2023-03-01T10:08:30;13.60;;;12.40;;
35056;SDS011;21241;51.828;19.574;2023-03-01T10:11:04;14.90;;;13.60;;
35056;SDS011;21241;51.828;19.574;2023-03-01T10:13:47;12.80;;;11.60;;
35056;SDS011;21241;51.828;19.574;2023-03-01T10:16:22;14.20;;;12.70;;
35056;SDS011;21241;51.828;19.574;2023-03-01T10:18:58;13.80;;;12.50;;
35056;SDS011;21241;51.828;19.574;2023-03-01T10:21:28;13.10;;;11.90;;
35056;SDS011;21241;51.828;19.574;2023-03-01T10:24:08;13.90;;;12.60;;
35056;SDS011;21241;51.828;19.574;2023-03-01T10:32:49;12.10;;;10.90;;
35056;SDS011;21241;51.828;19.574;2023-03-01T10:35:22;12.40;;;11.20;;
35056;SDS011;21241;51.828;19.574;2023-03-01T10:37:56;12.00;;;10.90;;
35056;SDS011;21241;51.828;19.574;2023-03-01T10:40:32;11.20;;;10.20;;
35056;SDS011;21241;51.828;19.574;2023-03-01T10:43:01;11.90;;;10.70;;
35056;SDS011;21241;51.828;19.574;2023-03-01T10:48:06;10.20;;;9.30;;
35056;SDS011;21241;51.828;19.574;2023-03-01T10:50:47;10.20;;;9.30;;
35056;SDS011;21241;51.828;19.574;2023-03-01T10:53:19;9.10;;;8.30;;
35056;SDS011;21241;51.828;19.574;2023-03-01T10:55:48;9.00;;;8.20;;
35056;SDS011;21241;51.828;19.574;2023-03-01T10:58:24;10.10;;;9.20;;
35056;SDS011;21241;51.828;19.574;2023-03-01T11:00:58;10.00;;;9.10;;
35056;SDS011;21241;51.828;19.574;2023-03-01T11:03:54;10.50;;;9.30;;
35056;SDS011;21241;51.828;19.574;2023-03-01T11:06:40;8.80;;;8.00;;
35056;SDS011;21241;51.828;19.574;2023-03-01T11:09:13;9.30;;;8.50;;
35056;SDS011;21241;51.828;19.574;2023-03-01T11:11:43;10.00;;;9.00;;
35056;SDS011;21241;51.828;19.574;2023-03-01T11:17:02;10.10;;;9.20;;
35056;SDS011;21241;51.828;19.574;2023-03-01T11:19:32;9.80;;;8.90;;
35056;SDS011;21241;51.828;19.574;2023-03-01T11:24:52;9.60;;;8.80;;
35056;SDS011;21241;51.828;19.574;2023-03-01T11:27:37;9.90;;;9.00;;
35056;SDS011;21241;51.828;19.574;2023-03-01T11:30:43;9.80;;;9.00;;
35056;SDS011;21241;51.828;19.574;2023-03-01T11:33:34;9.90;;;9.00;;
35056;SDS011;21241;51.828;19.574;2023-03-01T11:36:41;9.50;;;8.70;;
35056;SDS011;21241;51.828;19.574;2023-03-01T11:42:06;9.10;;;8.30;;
35056;SDS011;21241;51.828;19.574;2023-03-01T11:44:49;9.00;;;8.20;;
35056;SDS011;21241;51.828;19.574;2023-03-01T11:50:23;9.30;;;8.50;;
35056;SDS011;21241;51.828;19.574;2023-03-01T11:53:11;7.70;;;7.00;;
35056;SDS011;21241;51.828;19.574;2023-03-01T11:56:07;8.20;;;7.50;;
35056;SDS011;21241;51.828;19.574;2023-03-01T12:01:26;7.60;;;6.90;;
35056;SDS011;21241;51.828;19.574;2023-03-01T12:07:03;8.80;;;8.10;;
35056;SDS011;21241;51.828;19.574;2023-03-01T12:12:41;8.10;;;7.30;;
35056;SDS011;21241;51.828;19.574;2023-03-01T12:15:20;7.60;;;6.90;;
35056;SDS011;21241;51.828;19.574;2023-03-01T12:20:44;23.60;;;21.30;;
35056;SDS011;21241;51.828;19.574;2023-03-01T12:23:50;9.50;;;8.60;;
35056;SDS011;21241;51.828;19.574;2023-03-01T12:26:26;10.20;;;8.50;;
35056;SDS011;21241;51.828;19.574;2023-03-01T12:29:14;8.20;;;7.60;;
35056;SDS011;21241;51.828;19.574;2023-03-01T12:32:02;7.60;;;6.90;;
35056;SDS011;21241;51.828;19.574;2023-03-01T12:37:21;7.50;;;6.70;;
35056;SDS011;21241;51.828;19.574;2023-03-01T12:42:55;8.30;;;7.50;;
35056;SDS011;21241;51.828;19.574;2023-03-01T12:50:57;6.80;;;6.20;;
35056;SDS011;21241;51.828;19.574;2023-03-01T12:53:44;7.20;;;6.50;;
35056;SDS011;21241;51.828;19.574;2023-03-01T12:56:15;7.10;;;6.40;;
35056;SDS011;21241;51.828;19.574;2023-03-01T13:04:50;7.20;;;6.60;;
35056;SDS011;21241;51.828;19.574;2023-03-01T13:07:40;7.00;;;6.40;;
35056;SDS011;21241;51.828;19.574;2023-03-01T13:13:24;9.90;;;9.10;;
35056;SDS011;21241;51.828;19.574;2023-03-01T13:15:53;7.50;;;6.80;;
35056;SDS011;21241;51.828;19.574;2023-03-01T13:20:55;8.60;;;7.80;;
35056;SDS011;21241;51.828;19.574;2023-03-01T13:23:32;7.40;;;6.80;;
35056;SDS011;21241;51.828;19.574;2023-03-01T13:33:54;8.20;;;7.50;;
35056;SDS011;21241;51.828;19.574;2023-03-01T13:38:59;8.30;;;7.40;;
35056;SDS011;21241;51.828;19.574;2023-03-01T13:44:24;8.10;;;7.40;;
35056;SDS011;21241;51.828;19.574;2023-03-01T13:49:46;9.30;;;8.50;;
35056;SDS011;21241;51.828;19.574;2023-03-01T13:52:36;9.20;;;8.40;;
35056;SDS011;21241;51.828;19.574;2023-03-01T13:55:23;8.80;;;8.10;;
35056;SDS011;21241;51.828;19.574;2023-03-01T13:57:57;9.70;;;8.70;;
35056;SDS011;21241;51.828;19.574;2023-03-01T14:00:28;9.90;;;9.10;;
35056;SDS011;21241;51.828;19.574;2023-03-01T14:03:15;9.80;;;9.00;;
35056;SDS011;21241;51.828;19.574;2023-03-01T14:05:58;9.80;;;8.80;;
35056;SDS011;21241;51.828;19.574;2023-03-01T14:08:40;8.80;;;7.90;;
35056;SDS011;21241;51.828;19.574;2023-03-01T14:14:10;29.00;;;26.50;;
35056;SDS011;21241;51.828;19.574;2023-03-01T14:19:28;9.10;;;8.30;;
35056;SDS011;21241;51.828;19.574;2023-03-01T14:24:52;10.40;;;9.40;;
35056;SDS011;21241;51.828;19.574;2023-03-01T14:27:36;11.50;;;10.50;;
35056;SDS011;21241;51.828;19.574;2023-03-01T14:30:25;22.50;;;20.60;;
35056;SDS011;21241;51.828;19.574;2023-03-01T14:32:59;14.70;;;13.40;;
35056;SDS011;21241;51.828;19.574;2023-03-01T14:35:29;10.40;;;9.60;;
35056;SDS011;21241;51.828;19.574;2023-03-01T14:37:58;9.90;;;9.10;;
35056;SDS011;21241;51.828;19.574;2023-03-01T14:42:55;10.80;;;9.80;;
35056;SDS011;21241;51.828;19.574;2023-03-01T14:45:25;9.80;;;9.00;;
35056;SDS011;21241;51.828;19.574;2023-03-01T14:47:55;9.80;;;8.90;;
35056;SDS011;21241;51.828;19.574;2023-03-01T14:50:27;11.00;;;10.00;;
35056;SDS011;21241;51.828;19.574;2023-03-01T14:52:59;9.40;;;8.60;;
35056;SDS011;21241;51.828;19.574;2023-03-01T14:55:36;12.30;;;11.30;;
35056;SDS011;21241;51.828;19.574;2023-03-01T14:58:09;16.00;;;14.70;;
35056;SDS011;21241;51.828;19.574;2023-03-01T15:00:44;11.10;;;10.20;;
35056;SDS011;21241;51.828;19.574;2023-03-01T15:03:31;10.50;;;9.60;;
35056;SDS011;21241;51.828;19.574;2023-03-01T15:06:06;10.10;;;9.10;;
35056;SDS011;21241;51.828;19.574;2023-03-01T15:08:35;10.20;;;9.40;;
35056;SDS011;21241;51.828;19.574;2023-03-01T15:11:05;10.30;;;9.40;;
35056;SDS011;21241;51.828;19.574;2023-03-01T15:13:53;9.90;;;9.00;;
35056;SDS011;21241;51.828;19.574;2023-03-01T15:16:31;11.10;;;10.20;;
35056;SDS011;21241;51.828;19.574;2023-03-01T15:19:01;14.00;;;12.80;;
35056;SDS011;21241;51.828;19.574;2023-03-01T15:21:32;10.10;;;9.20;;
35056;SDS011;21241;51.828;19.574;2023-03-01T15:26:55;14.70;;;13.30;;
35056;SDS011;21241;51.828;19.574;2023-03-01T15:29:29;11.50;;;10.40;;
35056;SDS011;21241;51.828;19.574;2023-03-01T15:32:22;34.70;;;31.60;;
35056;SDS011;21241;51.828;19.574;2023-03-01T15:34:57;26.50;;;24.10;;
35056;SDS011;21241;51.828;19.574;2023-03-01T15:37:39;20.10;;;18.40;;
35056;SDS011;21241;51.828;19.574;2023-03-01T15:40:19;19.30;;;17.70;;
35056;SDS011;21241;51.828;19.574;2023-03-01T15:43:03;20.20;;;18.60;;
35056;SDS011;21241;51.828;19.574;2023-03-01T15:45:32;21.70;;;19.80;;
35056;SDS011;21241;51.828;19.574;2023-03-01T15:48:15;24.10;;;22.10;;
35056;SDS011;21241;51.828;19.574;2023-03-01T15:50:53;15.50;;;14.10;;
35056;SDS011;21241;51.828;19.574;2023-03-01T15:53:21;16.90;;;15.50;;
35056;SDS011;21241;51.828;19.574;2023-03-01T15:55:49;17.50;;;16.00;;
35056;SDS011;21241;51.828;19.574;2023-03-01T15:58:19;16.70;;;15.40;;
35056;SDS011;21241;51.828;19.574;2023-03-01T16:00:48;18.60;;;16.90;;
35056;SDS011;21241;51.828;19.574;2023-03-01T16:03:28;16.90;;;15.40;;
35056;SDS011;21241;51.828;19.574;2023-03-01T16:05:56;17.80;;;16.00;;
35056;SDS011;21241;51.828;19.574;2023-03-01T16:08:24;17.10;;;15.50;;
35056;SDS011;21241;51.828;19.574;2023-03-01T16:10:52;17.70;;;16.20;;
35056;SDS011;21241;51.828;19.574;2023-03-01T16:13:21;19.30;;;17.60;;
35056;SDS011;21241;51.828;19.574;2023-03-01T16:15:49;19.80;;;17.90;;
35056;SDS011;21241;51.828;19.574;2023-03-01T16:18:17;17.90;;;16.40;;
35056;SDS011;21241;51.828;19.574;2023-03-01T16:20:45;16.20;;;14.80;;